Terminal Aerodrome Forecast
Issued by NWS

Home | Current Version | Previous Version | Text Only | Print | Product List | Glossary On
Versions: 1 2 3 4 5 6 7 8 9 10 11 12 13 14 15 16 17 18 19 20 21 22 23 24 25 26
000
FTUS43 KDLH 281400 AAA
TAFHIB
TAF AMD
KHIB 281434Z 2815/2912 16007KT P6SM OVC005
     FM281700 17011KT P6SM OVC007
     FM290100 VRB03KT 5SM BR VCSH OVC006
     FM290500 32008KT 6SM BR VCSH OVC007
     FM290900 33015G28KT P6SM BKN015 OVC022=

USA.gov is the U.S. government's official web portal to all federal, state and local government web resources and services.